sensor_id;sensor_type;location;lat;lon;timestamp;temperature;humidity
1135;DHT22;556;53.550;10.048;2022-08-20T00:01:58;24.20;50.10
1135;DHT22;556;53.550;10.048;2022-08-20T00:04:25;24.20;49.90
1135;DHT22;556;53.550;10.048;2022-08-20T00:06:53;24.20;49.90
1135;DHT22;556;53.550;10.048;2022-08-20T00:09:20;24.20;49.80
1135;DHT22;556;53.550;10.048;2022-08-20T00:11:47;24.20;49.70
1135;DHT22;556;53.550;10.048;2022-08-20T00:14:14;24.20;49.70
1135;DHT22;556;53.550;10.048;2022-08-20T00:16:41;24.20;49.60
1135;DHT22;556;53.550;10.048;2022-08-20T00:19:09;24.30;49.60
1135;DHT22;556;53.550;10.048;2022-08-20T00:21:36;24.30;49.50
1135;DHT22;556;53.550;10.048;2022-08-20T00:24:05;24.30;49.50
1135;DHT22;556;53.550;10.048;2022-08-20T00:26:32;24.30;49.50
1135;DHT22;556;53.550;10.048;2022-08-20T00:28:59;24.30;49.40
1135;DHT22;556;53.550;10.048;2022-08-20T00:31:27;24.20;49.30
1135;DHT22;556;53.550;10.048;2022-08-20T00:33:54;24.30;49.40
1135;DHT22;556;53.550;10.048;2022-08-20T00:36:22;24.20;49.30
1135;DHT22;556;53.550;10.048;2022-08-20T00:38:49;24.20;48.80
1135;DHT22;556;53.550;10.048;2022-08-20T00:41:21;24.20;49.20
1135;DHT22;556;53.550;10.048;2022-08-20T00:43:51;24.20;49.20
1135;DHT22;556;53.550;10.048;2022-08-20T00:46:20;24.30;49.10
1135;DHT22;556;53.550;10.048;2022-08-20T00:48:50;24.30;49.10
1135;DHT22;556;53.550;10.048;2022-08-20T00:51:23;24.30;49.10
1135;DHT22;556;53.550;10.048;2022-08-20T00:53:54;24.30;49.00
1135;DHT22;556;53.550;10.048;2022-08-20T00:56:23;24.30;49.00
1135;DHT22;556;53.550;10.048;2022-08-20T00:58:51;24.30;48.90
1135;DHT22;556;53.550;10.048;2022-08-20T01:01:20;24.30;48.90
1135;DHT22;556;53.550;10.048;2022-08-20T01:03:48;24.30;48.70
1135;DHT22;556;53.550;10.048;2022-08-20T01:06:20;24.40;48.70
1135;DHT22;556;53.550;10.048;2022-08-20T01:08:47;24.40;48.70
1135;DHT22;556;53.550;10.048;2022-08-20T01:11:14;24.40;48.60
1135;DHT22;556;53.550;10.048;2022-08-20T01:13:44;24.40;48.60
1135;DHT22;556;53.550;10.048;2022-08-20T01:16:17;24.40;48.60
1135;DHT22;556;53.550;10.048;2022-08-20T01:18:45;24.50;48.70
1135;DHT22;556;53.550;10.048;2022-08-20T01:21:13;24.40;48.60
1135;DHT22;556;53.550;10.048;2022-08-20T01:23:50;24.40;48.20
1135;DHT22;556;53.550;10.048;2022-08-20T01:26:23;24.30;48.60
1135;DHT22;556;53.550;10.048;2022-08-20T01:28:53;24.30;48.60
1135;DHT22;556;53.550;10.048;2022-08-20T01:31:23;24.20;48.70
1135;DHT22;556;53.550;10.048;2022-08-20T01:33:52;24.20;48.60
1135;DHT22;556;53.550;10.048;2022-08-20T01:36:23;24.20;48.70
1135;DHT22;556;53.550;10.048;2022-08-20T01:38:51;24.20;48.70
1135;DHT22;556;53.550;10.048;2022-08-20T01:41:40;24.00;48.70
1135;DHT22;556;53.550;10.048;2022-08-20T01:44:12;24.00;48.90
1135;DHT22;556;53.550;10.048;2022-08-20T01:46:41;23.90;48.80
1135;DHT22;556;53.550;10.048;2022-08-20T01:49:12;23.90;48.90
1135;DHT22;556;53.550;10.048;2022-08-20T01:51:41;23.90;49.00
1135;DHT22;556;53.550;10.048;2022-08-20T01:54:08;23.90;48.90
1135;DHT22;556;53.550;10.048;2022-08-20T01:56:53;23.90;48.80
1135;DHT22;556;53.550;10.048;2022-08-20T01:59:20;23.90;49.00
1135;DHT22;556;53.550;10.048;2022-08-20T02:01:48;23.90;49.00
1135;DHT22;556;53.550;10.048;2022-08-20T02:04:16;23.90;49.00
1135;DHT22;556;53.550;10.048;2022-08-20T02:06:46;23.90;49.00
1135;DHT22;556;53.550;10.048;2022-08-20T02:09:13;23.90;49.10
1135;DHT22;556;53.550;10.048;2022-08-20T02:11:42;24.00;48.60
1135;DHT22;556;53.550;10.048;2022-08-20T02:14:11;24.00;49.10
1135;DHT22;556;53.550;10.048;2022-08-20T02:16:43;24.00;48.60
1135;DHT22;556;53.550;10.048;2022-08-20T02:19:15;24.00;49.10
1135;DHT22;556;53.550;10.048;2022-08-20T02:21:46;24.00;49.10
1135;DHT22;556;53.550;10.048;2022-08-20T02:24:16;24.10;49.10
1135;DHT22;556;53.550;10.048;2022-08-20T02:26:45;24.10;49.10
1135;DHT22;556;53.550;10.048;2022-08-20T02:29:13;24.00;49.10
1135;DHT22;556;53.550;10.048;2022-08-20T02:31:42;24.00;49.10
1135;DHT22;556;53.550;10.048;2022-08-20T02:34:12;24.00;48.80
1135;DHT22;556;53.550;10.048;2022-08-20T02:36:59;24.00;48.70
1135;DHT22;556;53.550;10.048;2022-08-20T02:39:26;24.00;49.10
1135;DHT22;556;53.550;10.048;2022-08-20T02:41:55;24.10;49.30
1135;DHT22;556;53.550;10.048;2022-08-20T02:44:22;24.20;49.20
1135;DHT22;556;53.550;10.048;2022-08-20T02:46:49;24.20;48.70
1135;DHT22;556;53.550;10.048;2022-08-20T02:49:17;24.10;49.20
1135;DHT22;556;53.550;10.048;2022-08-20T02:51:45;24.00;49.20
1135;DHT22;556;53.550;10.048;2022-08-20T02:54:13;24.00;49.40
1135;DHT22;556;53.550;10.048;2022-08-20T02:56:41;23.90;49.50
1135;DHT22;556;53.550;10.048;2022-08-20T02:59:09;23.90;49.50
1135;DHT22;556;53.550;10.048;2022-08-20T03:01:37;23.80;49.50
1135;DHT22;556;53.550;10.048;2022-08-20T03:04:04;23.80;49.60
1135;DHT22;556;53.550;10.048;2022-08-20T03:06:31;23.80;49.70
1135;DHT22;556;53.550;10.048;2022-08-20T03:08:59;23.80;49.80
1135;DHT22;556;53.550;10.048;2022-08-20T03:11:27;23.80;49.80
1135;DHT22;556;53.550;10.048;2022-08-20T03:13:54;23.90;49.80
1135;DHT22;556;53.550;10.048;2022-08-20T03:16:23;23.80;49.80
1135;DHT22;556;53.550;10.048;2022-08-20T03:18:50;23.80;49.80
1135;DHT22;556;53.550;10.048;2022-08-20T03:21:17;23.80;50.00
1135;DHT22;556;53.550;10.048;2022-08-20T03:23:45;23.70;50.00
1135;DHT22;556;53.550;10.048;2022-08-20T03:26:12;23.70;50.10
1135;DHT22;556;53.550;10.048;2022-08-20T03:28:40;23.60;50.20
1135;DHT22;556;53.550;10.048;2022-08-20T03:31:10;23.70;50.30
1135;DHT22;556;53.550;10.048;2022-08-20T03:33:38;23.60;50.30
1135;DHT22;556;53.550;10.048;2022-08-20T03:36:06;23.60;50.50
1135;DHT22;556;53.550;10.048;2022-08-20T03:38:33;23.50;50.50
1135;DHT22;556;53.550;10.048;2022-08-20T03:41:01;23.60;50.60
1135;DHT22;556;53.550;10.048;2022-08-20T03:43:29;23.50;50.60
1135;DHT22;556;53.550;10.048;2022-08-20T03:45:57;23.50;50.80
1135;DHT22;556;53.550;10.048;2022-08-20T03:48:25;23.50;50.90
1135;DHT22;556;53.550;10.048;2022-08-20T03:50:55;23.60;51.00
1135;DHT22;556;53.550;10.048;2022-08-20T03:53:25;23.60;51.00
1135;DHT22;556;53.550;10.048;2022-08-20T03:55:59;23.50;51.10
1135;DHT22;556;53.550;10.048;2022-08-20T03:58:29;23.60;51.10
1135;DHT22;556;53.550;10.048;2022-08-20T04:00:57;23.60;51.20
1135;DHT22;556;53.550;10.048;2022-08-20T04:03:24;23.60;51.30
1135;DHT22;556;53.550;10.048;2022-08-20T04:05:53;23.60;51.30
1135;DHT22;556;53.550;10.048;2022-08-20T04:08:22;23.60;51.40
1135;DHT22;556;53.550;10.048;2022-08-20T04:10:52;23.50;51.50
1135;DHT22;556;53.550;10.048;2022-08-20T04:13:22;23.50;52.10
1135;DHT22;556;53.550;10.048;2022-08-20T04:15:50;23.50;51.70
1135;DHT22;556;53.550;10.048;2022-08-20T04:18:21;23.50;51.70
1135;DHT22;556;53.550;10.048;2022-08-20T04:20:49;23.40;51.70
1135;DHT22;556;53.550;10.048;2022-08-20T04:23:18;23.40;51.90
1135;DHT22;556;53.550;10.048;2022-08-20T04:25:46;23.40;51.90
1135;DHT22;556;53.550;10.048;2022-08-20T04:28:17;23.40;52.00
1135;DHT22;556;53.550;10.048;2022-08-20T04:30:50;23.40;52.10
1135;DHT22;556;53.550;10.048;2022-08-20T04:33:18;23.40;51.70
1135;DHT22;556;53.550;10.048;2022-08-20T04:35:45;23.40;52.30
1135;DHT22;556;53.550;10.048;2022-08-20T04:38:14;23.30;52.20
1135;DHT22;556;53.550;10.048;2022-08-20T04:40:43;23.30;52.30
1135;DHT22;556;53.550;10.048;2022-08-20T04:43:24;23.40;52.30
1135;DHT22;556;53.550;10.048;2022-08-20T04:45:51;23.40;52.40
1135;DHT22;556;53.550;10.048;2022-08-20T04:48:20;23.40;52.30
1135;DHT22;556;53.550;10.048;2022-08-20T04:50:50;23.40;52.40
1135;DHT22;556;53.550;10.048;2022-08-20T04:53:21;23.40;53.00
1135;DHT22;556;53.550;10.048;2022-08-20T04:55:50;23.40;52.50
1135;DHT22;556;53.550;10.048;2022-08-20T04:58:20;23.40;52.60
1135;DHT22;556;53.550;10.048;2022-08-20T05:00:48;23.40;52.70
1135;DHT22;556;53.550;10.048;2022-08-20T05:03:17;23.50;52.70
1135;DHT22;556;53.550;10.048;2022-08-20T05:05:45;23.50;52.70
1135;DHT22;556;53.550;10.048;2022-08-20T05:08:14;23.60;52.70
1135;DHT22;556;53.550;10.048;2022-08-20T05:10:41;23.60;52.80
1135;DHT22;556;53.550;10.048;2022-08-20T05:13:10;23.60;52.90
1135;DHT22;556;53.550;10.048;2022-08-20T05:15:38;23.60;52.90
1135;DHT22;556;53.550;10.048;2022-08-20T05:18:06;23.60;52.90
1135;DHT22;556;53.550;10.048;2022-08-20T05:20:35;23.60;52.90
1135;DHT22;556;53.550;10.048;2022-08-20T05:23:06;23.70;53.00
1135;DHT22;556;53.550;10.048;2022-08-20T05:25:34;23.80;53.20
1135;DHT22;556;53.550;10.048;2022-08-20T05:28:04;23.80;53.00
1135;DHT22;556;53.550;10.048;2022-08-20T05:30:35;23.80;53.20
1135;DHT22;556;53.550;10.048;2022-08-20T05:33:04;23.90;53.20
1135;DHT22;556;53.550;10.048;2022-08-20T05:35:33;24.00;53.10
1135;DHT22;556;53.550;10.048;2022-08-20T05:38:04;24.00;53.10
1135;DHT22;556;53.550;10.048;2022-08-20T05:40:32;24.00;53.10
1135;DHT22;556;53.550;10.048;2022-08-20T05:42:59;24.10;53.20
1135;DHT22;556;53.550;10.048;2022-08-20T05:45:29;24.20;52.80
1135;DHT22;556;53.550;10.048;2022-08-20T05:47:58;24.20;53.30
1135;DHT22;556;53.550;10.048;2022-08-20T05:50:25;24.20;53.20
1135;DHT22;556;53.550;10.048;2022-08-20T05:52:52;24.30;53.30
1135;DHT22;556;53.550;10.048;2022-08-20T05:55:19;24.40;53.30
1135;DHT22;556;53.550;10.048;2022-08-20T05:57:46;24.60;53.20
1135;DHT22;556;53.550;10.048;2022-08-20T06:00:14;24.60;53.10
1135;DHT22;556;53.550;10.048;2022-08-20T06:02:41;24.70;53.10
1135;DHT22;556;53.550;10.048;2022-08-20T06:05:27;24.70;52.60
1135;DHT22;556;53.550;10.048;2022-08-20T06:07:54;24.70;53.20
1135;DHT22;556;53.550;10.048;2022-08-20T06:10:21;24.70;53.20
1135;DHT22;556;53.550;10.048;2022-08-20T06:12:49;24.70;53.30
1135;DHT22;556;53.550;10.048;2022-08-20T06:15:18;24.80;53.10
1135;DHT22;556;53.550;10.048;2022-08-20T06:17:45;24.90;53.10
1135;DHT22;556;53.550;10.048;2022-08-20T06:20:12;24.80;53.00
1135;DHT22;556;53.550;10.048;2022-08-20T06:22:41;24.80;52.50
1135;DHT22;556;53.550;10.048;2022-08-20T06:25:08;24.90;53.10
1135;DHT22;556;53.550;10.048;2022-08-20T06:27:37;24.90;53.10
1135;DHT22;556;53.550;10.048;2022-08-20T06:30:06;24.80;53.10
1135;DHT22;556;53.550;10.048;2022-08-20T06:32:34;24.70;53.20
1135;DHT22;556;53.550;10.048;2022-08-20T06:35:02;24.60;53.20
1135;DHT22;556;53.550;10.048;2022-08-20T06:37:31;24.70;53.30
1135;DHT22;556;53.550;10.048;2022-08-20T06:40:05;24.70;53.20
1135;DHT22;556;53.550;10.048;2022-08-20T06:42:34;24.70;53.10
1135;DHT22;556;53.550;10.048;2022-08-20T06:45:03;24.70;53.20
1135;DHT22;556;53.550;10.048;2022-08-20T06:47:30;24.60;53.20
1135;DHT22;556;53.550;10.048;2022-08-20T06:49:57;24.50;53.20
1135;DHT22;556;53.550;10.048;2022-08-20T06:52:24;24.40;52.70
1135;DHT22;556;53.550;10.048;2022-08-20T06:54:51;24.50;53.30
1135;DHT22;556;53.550;10.048;2022-08-20T06:57:20;24.60;53.30
1135;DHT22;556;53.550;10.048;2022-08-20T06:59:47;24.80;53.20
1135;DHT22;556;53.550;10.048;2022-08-20T07:02:14;25.10;52.90
1135;DHT22;556;53.550;10.048;2022-08-20T07:04:41;25.30;53.30
1135;DHT22;556;53.550;10.048;2022-08-20T07:07:15;25.40;52.70
1135;DHT22;556;53.550;10.048;2022-08-20T07:09:43;25.60;52.70
1135;DHT22;556;53.550;10.048;2022-08-20T07:12:11;25.60;52.50
1135;DHT22;556;53.550;10.048;2022-08-20T07:14:39;25.70;52.50
1135;DHT22;556;53.550;10.048;2022-08-20T07:17:06;25.80;52.00
1135;DHT22;556;53.550;10.048;2022-08-20T07:19:35;26.00;52.40
1135;DHT22;556;53.550;10.048;2022-08-20T07:22:02;26.30;52.30
1135;DHT22;556;53.550;10.048;2022-08-20T07:24:29;26.40;52.10
1135;DHT22;556;53.550;10.048;2022-08-20T07:26:58;26.50;52.00
1135;DHT22;556;53.550;10.048;2022-08-20T07:29:26;26.50;51.90
1135;DHT22;556;53.550;10.048;2022-08-20T07:32:14;26.60;51.80
1135;DHT22;556;53.550;10.048;2022-08-20T07:34:58;26.70;51.70
1135;DHT22;556;53.550;10.048;2022-08-20T07:37:25;26.70;51.70
1135;DHT22;556;53.550;10.048;2022-08-20T07:39:53;26.80;51.60
1135;DHT22;556;53.550;10.048;2022-08-20T07:42:20;26.90;51.40
1135;DHT22;556;53.550;10.048;2022-08-20T07:44:47;27.00;51.40
1135;DHT22;556;53.550;10.048;2022-08-20T07:47:18;27.30;51.10
1135;DHT22;556;53.550;10.048;2022-08-20T07:49:45;27.40;50.90
1135;DHT22;556;53.550;10.048;2022-08-20T07:52:13;27.40;50.80
1135;DHT22;556;53.550;10.048;2022-08-20T07:54:40;27.30;50.70
1135;DHT22;556;53.550;10.048;2022-08-20T07:57:09;27.40;50.60
1135;DHT22;556;53.550;10.048;2022-08-20T07:59:36;27.30;50.60
1135;DHT22;556;53.550;10.048;2022-08-20T08:02:04;27.30;50.60
1135;DHT22;556;53.550;10.048;2022-08-20T08:04:32;27.20;50.40
1135;DHT22;556;53.550;10.048;2022-08-20T08:07:01;27.30;50.40
1135;DHT22;556;53.550;10.048;2022-08-20T08:09:29;27.30;50.20
1135;DHT22;556;53.550;10.048;2022-08-20T08:11:57;27.30;50.20
1135;DHT22;556;53.550;10.048;2022-08-20T08:14:28;27.30;50.10
1135;DHT22;556;53.550;10.048;2022-08-20T08:17:00;27.30;50.10
1135;DHT22;556;53.550;10.048;2022-08-20T08:19:30;27.40;49.90
1135;DHT22;556;53.550;10.048;2022-08-20T08:22:05;27.40;49.70
1135;DHT22;556;53.550;10.048;2022-08-20T08:24:32;27.40;49.70
1135;DHT22;556;53.550;10.048;2022-08-20T08:27:00;27.40;49.70
1135;DHT22;556;53.550;10.048;2022-08-20T08:29:27;27.50;49.50
1135;DHT22;556;53.550;10.048;2022-08-20T08:31:54;27.40;49.40
1135;DHT22;556;53.550;10.048;2022-08-20T08:34:21;27.40;49.40
1135;DHT22;556;53.550;10.048;2022-08-20T08:36:50;27.50;49.30
1135;DHT22;556;53.550;10.048;2022-08-20T08:39:19;27.50;49.10
1135;DHT22;556;53.550;10.048;2022-08-20T08:41:48;27.60;49.10
1135;DHT22;556;53.550;10.048;2022-08-20T08:44:19;27.60;48.90
1135;DHT22;556;53.550;10.048;2022-08-20T08:46:50;27.60;48.90
1135;DHT22;556;53.550;10.048;2022-08-20T08:49:22;27.60;49.00
1135;DHT22;556;53.550;10.048;2022-08-20T08:51:53;27.60;48.80
1135;DHT22;556;53.550;10.048;2022-08-20T08:54:26;27.60;48.80
1135;DHT22;556;53.550;10.048;2022-08-20T08:56:54;27.70;48.70
1135;DHT22;556;53.550;10.048;2022-08-20T08:59:22;27.80;48.50
1135;DHT22;556;53.550;10.048;2022-08-20T09:01:52;27.80;48.30
1135;DHT22;556;53.550;10.048;2022-08-20T09:04:20;27.70;48.10
1135;DHT22;556;53.550;10.048;2022-08-20T09:06:49;27.70;48.10
1135;DHT22;556;53.550;10.048;2022-08-20T09:09:20;27.80;48.00
1135;DHT22;556;53.550;10.048;2022-08-20T09:11:51;28.00;47.70
1135;DHT22;556;53.550;10.048;2022-08-20T09:14:19;28.10;47.30
1135;DHT22;556;53.550;10.048;2022-08-20T09:16:46;28.30;47.10
1135;DHT22;556;53.550;10.048;2022-08-20T09:19:14;28.50;46.90
1135;DHT22;556;53.550;10.048;2022-08-20T09:21:41;28.60;46.50
1135;DHT22;556;53.550;10.048;2022-08-20T09:24:08;28.80;46.30
1135;DHT22;556;53.550;10.048;2022-08-20T09:26:35;29.00;46.10
1135;DHT22;556;53.550;10.048;2022-08-20T09:29:04;28.90;46.00
1135;DHT22;556;53.550;10.048;2022-08-20T09:31:31;29.10;45.80
1135;DHT22;556;53.550;10.048;2022-08-20T09:33:58;29.20;45.50
1135;DHT22;556;53.550;10.048;2022-08-20T09:36:25;29.10;45.60
1135;DHT22;556;53.550;10.048;2022-08-20T09:38:52;29.00;45.60
1135;DHT22;556;53.550;10.048;2022-08-20T09:41:19;28.70;45.70
1135;DHT22;556;53.550;10.048;2022-08-20T09:43:46;28.50;45.80
1135;DHT22;556;53.550;10.048;2022-08-20T09:46:15;28.30;45.80
1135;DHT22;556;53.550;10.048;2022-08-20T09:48:43;28.30;45.70
1135;DHT22;556;53.550;10.048;2022-08-20T09:51:10;28.40;45.50
1135;DHT22;556;53.550;10.048;2022-08-20T09:53:37;28.40;45.40
1135;DHT22;556;53.550;10.048;2022-08-20T09:56:05;28.40;45.40
1135;DHT22;556;53.550;10.048;2022-08-20T09:58:35;28.50;45.30
1135;DHT22;556;53.550;10.048;2022-08-20T10:01:07;28.70;45.20
1135;DHT22;556;53.550;10.048;2022-08-20T10:03:36;28.70;45.00
1135;DHT22;556;53.550;10.048;2022-08-20T10:06:03;28.60;44.90
1135;DHT22;556;53.550;10.048;2022-08-20T10:08:30;28.70;44.80
1135;DHT22;556;53.550;10.048;2022-08-20T10:10:58;28.60;44.60
1135;DHT22;556;53.550;10.048;2022-08-20T10:13:25;28.60;44.70
1135;DHT22;556;53.550;10.048;2022-08-20T10:15:52;28.60;44.50
1135;DHT22;556;53.550;10.048;2022-08-20T10:18:19;28.70;44.40
1135;DHT22;556;53.550;10.048;2022-08-20T10:20:47;28.80;44.30
1135;DHT22;556;53.550;10.048;2022-08-20T10:23:15;28.80;44.20
1135;DHT22;556;53.550;10.048;2022-08-20T10:25:42;28.90;44.00
1135;DHT22;556;53.550;10.048;2022-08-20T10:28:10;29.00;44.00
1135;DHT22;556;53.550;10.048;2022-08-20T10:30:37;29.00;44.00
1135;DHT22;556;53.550;10.048;2022-08-20T10:33:06;28.80;43.90
1135;DHT22;556;53.550;10.048;2022-08-20T10:35:34;28.70;44.10
1135;DHT22;556;53.550;10.048;2022-08-20T10:38:03;28.60;43.90
1135;DHT22;556;53.550;10.048;2022-08-20T10:40:30;28.70;43.70
1135;DHT22;556;53.550;10.048;2022-08-20T10:42:57;28.70;43.60
1135;DHT22;556;53.550;10.048;2022-08-20T10:45:24;28.60;43.60
1135;DHT22;556;53.550;10.048;2022-08-20T10:47:51;28.60;43.60
1135;DHT22;556;53.550;10.048;2022-08-20T10:50:18;28.70;43.60
1135;DHT22;556;53.550;10.048;2022-08-20T10:52:46;28.80;43.50
1135;DHT22;556;53.550;10.048;2022-08-20T10:55:15;29.00;43.30
1135;DHT22;556;53.550;10.048;2022-08-20T10:57:42;29.40;43.00
1135;DHT22;556;53.550;10.048;2022-08-20T11:00:12;29.40;42.60
1135;DHT22;556;53.550;10.048;2022-08-20T11:02:40;29.40;42.60
1135;DHT22;556;53.550;10.048;2022-08-20T11:05:07;29.40;42.50
1135;DHT22;556;53.550;10.048;2022-08-20T11:07:35;29.60;42.20
1135;DHT22;556;53.550;10.048;2022-08-20T11:10:04;29.50;42.10
1135;DHT22;556;53.550;10.048;2022-08-20T11:12:33;29.60;42.00
1135;DHT22;556;53.550;10.048;2022-08-20T11:15:00;29.50;42.00
1135;DHT22;556;53.550;10.048;2022-08-20T11:17:30;29.70;41.90
1135;DHT22;556;53.550;10.048;2022-08-20T11:19:58;29.70;41.70
1135;DHT22;556;53.550;10.048;2022-08-20T11:22:26;29.70;41.70
1135;DHT22;556;53.550;10.048;2022-08-20T11:24:54;29.70;41.70
1135;DHT22;556;53.550;10.048;2022-08-20T11:27:24;29.80;41.60
1135;DHT22;556;53.550;10.048;2022-08-20T11:29:53;29.80;41.60
1135;DHT22;556;53.550;10.048;2022-08-20T11:32:22;29.80;41.50
1135;DHT22;556;53.550;10.048;2022-08-20T11:34:50;29.70;41.40
1135;DHT22;556;53.550;10.048;2022-08-20T11:37:19;29.70;41.40
1135;DHT22;556;53.550;10.048;2022-08-20T11:39:47;29.80;41.30
1135;DHT22;556;53.550;10.048;2022-08-20T11:42:15;30.10;41.10
1135;DHT22;556;53.550;10.048;2022-08-20T11:44:42;30.20;40.90
1135;DHT22;556;53.550;10.048;2022-08-20T11:47:21;30.10;40.80
1135;DHT22;556;53.550;10.048;2022-08-20T11:49:55;30.00;40.80
1135;DHT22;556;53.550;10.048;2022-08-20T11:52:23;29.90;40.90
1135;DHT22;556;53.550;10.048;2022-08-20T11:54:50;30.00;40.90
1135;DHT22;556;53.550;10.048;2022-08-20T11:57:19;30.00;40.80
1135;DHT22;556;53.550;10.048;2022-08-20T11:59:48;29.90;40.80
1135;DHT22;556;53.550;10.048;2022-08-20T12:02:16;29.80;40.60
1135;DHT22;556;53.550;10.048;2022-08-20T12:04:43;29.80;40.70
1135;DHT22;556;53.550;10.048;2022-08-20T12:07:13;29.90;41.10
1135;DHT22;556;53.550;10.048;2022-08-20T12:09:41;30.00;40.40
1135;DHT22;556;53.550;10.048;2022-08-20T12:12:08;30.00;40.30
1135;DHT22;556;53.550;10.048;2022-08-20T12:14:36;30.00;40.20
1135;DHT22;556;53.550;10.048;2022-08-20T12:17:07;30.00;40.00
1135;DHT22;556;53.550;10.048;2022-08-20T12:19:37;30.00;40.00
1135;DHT22;556;53.550;10.048;2022-08-20T12:22:05;30.00;39.90
1135;DHT22;556;53.550;10.048;2022-08-20T12:24:32;30.00;39.80
1135;DHT22;556;53.550;10.048;2022-08-20T12:27:08;29.80;39.60
1135;DHT22;556;53.550;10.048;2022-08-20T12:29:36;29.70;39.60
1135;DHT22;556;53.550;10.048;2022-08-20T12:32:04;29.80;39.50
1135;DHT22;556;53.550;10.048;2022-08-20T12:34:32;29.70;39.20
1135;DHT22;556;53.550;10.048;2022-08-20T12:37:01;29.60;39.00
1135;DHT22;556;53.550;10.048;2022-08-20T12:39:30;29.40;39.10
1135;DHT22;556;53.550;10.048;2022-08-20T12:41:58;29.40;39.10
1135;DHT22;556;53.550;10.048;2022-08-20T12:44:27;29.30;38.80
1135;DHT22;556;53.550;10.048;2022-08-20T12:47:05;29.30;38.80
1135;DHT22;556;53.550;10.048;2022-08-20T12:49:32;29.30;38.80
1135;DHT22;556;53.550;10.048;2022-08-20T12:52:01;29.40;38.70
1135;DHT22;556;53.550;10.048;2022-08-20T12:56:56;29.80;37.80
1135;DHT22;556;53.550;10.048;2022-08-20T12:59:24;30.10;38.10
1135;DHT22;556;53.550;10.048;2022-08-20T13:01:52;30.50;37.90
1135;DHT22;556;53.550;10.048;2022-08-20T13:04:19;31.00;37.70
1135;DHT22;556;53.550;10.048;2022-08-20T13:06:46;31.50;37.30
1135;DHT22;556;53.550;10.048;2022-08-20T13:09:15;31.90;36.80
1135;DHT22;556;53.550;10.048;2022-08-20T13:11:43;32.30;36.50
1135;DHT22;556;53.550;10.048;2022-08-20T13:14:10;32.70;36.20
1135;DHT22;556;53.550;10.048;2022-08-20T13:16:37;33.10;35.90
1135;DHT22;556;53.550;10.048;2022-08-20T13:19:04;33.60;35.50
1135;DHT22;556;53.550;10.048;2022-08-20T13:21:31;34.00;35.10
1135;DHT22;556;53.550;10.048;2022-08-20T13:23:59;34.20;34.80
1135;DHT22;556;53.550;10.048;2022-08-20T13:26:28;34.30;34.50
1135;DHT22;556;53.550;10.048;2022-08-20T13:28:55;34.40;34.40
1135;DHT22;556;53.550;10.048;2022-08-20T13:31:22;35.10;33.20
1135;DHT22;556;53.550;10.048;2022-08-20T13:33:49;35.20;33.50
1135;DHT22;556;53.550;10.048;2022-08-20T13:36:16;35.20;33.30
1135;DHT22;556;53.550;10.048;2022-08-20T13:38:43;35.50;32.90
1135;DHT22;556;53.550;10.048;2022-08-20T13:41:10;35.90;32.00
1135;DHT22;556;53.550;10.048;2022-08-20T13:43:38;36.10;32.40
1135;DHT22;556;53.550;10.048;2022-08-20T13:46:06;35.90;32.10
1135;DHT22;556;53.550;10.048;2022-08-20T13:48:33;35.40;32.00
1135;DHT22;556;53.550;10.048;2022-08-20T13:51:00;34.90;32.20
1135;DHT22;556;53.550;10.048;2022-08-20T13:53:27;35.00;32.40
1135;DHT22;556;53.550;10.048;2022-08-20T13:55:54;35.10;32.10
1135;DHT22;556;53.550;10.048;2022-08-20T13:58:22;34.90;32.10
1135;DHT22;556;53.550;10.048;2022-08-20T14:00:51;34.90;32.10
1135;DHT22;556;53.550;10.048;2022-08-20T14:03:18;34.50;32.60
1135;DHT22;556;53.550;10.048;2022-08-20T14:05:45;33.90;31.60
1135;DHT22;556;53.550;10.048;2022-08-20T14:08:16;33.30;32.40
1135;DHT22;556;53.550;10.048;2022-08-20T14:10:46;32.70;32.70
1135;DHT22;556;53.550;10.048;2022-08-20T14:13:15;32.70;33.10
1135;DHT22;556;53.550;10.048;2022-08-20T14:15:43;33.20;32.80
1135;DHT22;556;53.550;10.048;2022-08-20T14:18:14;33.50;32.40
1135;DHT22;556;53.550;10.048;2022-08-20T14:20:42;33.50;32.00
1135;DHT22;556;53.550;10.048;2022-08-20T14:23:10;33.50;32.20
1135;DHT22;556;53.550;10.048;2022-08-20T14:25:37;33.60;31.90
1135;DHT22;556;53.550;10.048;2022-08-20T14:28:10;33.80;31.80
1135;DHT22;556;53.550;10.048;2022-08-20T14:30:40;34.00;31.60
1135;DHT22;556;53.550;10.048;2022-08-20T14:33:08;33.90;31.40
1135;DHT22;556;53.550;10.048;2022-08-20T14:35:36;34.20;31.30
1135;DHT22;556;53.550;10.048;2022-08-20T14:38:05;34.20;31.10
1135;DHT22;556;53.550;10.048;2022-08-20T14:40:34;34.50;30.90
1135;DHT22;556;53.550;10.048;2022-08-20T14:43:03;35.00;30.70
1135;DHT22;556;53.550;10.048;2022-08-20T14:45:30;35.40;30.40
1135;DHT22;556;53.550;10.048;2022-08-20T14:47:58;35.60;30.00
1135;DHT22;556;53.550;10.048;2022-08-20T14:50:27;35.60;29.90
1135;DHT22;556;53.550;10.048;2022-08-20T14:52:58;35.70;29.80
1135;DHT22;556;53.550;10.048;2022-08-20T14:55:27;35.80;29.70
1135;DHT22;556;53.550;10.048;2022-08-20T14:57:55;36.00;29.40
1135;DHT22;556;53.550;10.048;2022-08-20T15:00:24;36.20;29.30
1135;DHT22;556;53.550;10.048;2022-08-20T15:02:52;36.50;29.10
1135;DHT22;556;53.550;10.048;2022-08-20T15:05:19;36.60;28.90
1135;DHT22;556;53.550;10.048;2022-08-20T15:07:48;36.50;28.80
1135;DHT22;556;53.550;10.048;2022-08-20T15:10:20;36.40;28.80
1135;DHT22;556;53.550;10.048;2022-08-20T15:12:48;36.50;28.50
1135;DHT22;556;53.550;10.048;2022-08-20T15:15:17;36.20;28.50
1135;DHT22;556;53.550;10.048;2022-08-20T15:17:45;36.00;28.40
1135;DHT22;556;53.550;10.048;2022-08-20T15:20:17;36.20;28.40
1135;DHT22;556;53.550;10.048;2022-08-20T15:22:44;36.80;28.20
1135;DHT22;556;53.550;10.048;2022-08-20T15:25:13;36.80;27.90
1135;DHT22;556;53.550;10.048;2022-08-20T15:27:42;36.30;27.80
1135;DHT22;556;53.550;10.048;2022-08-20T15:30:12;36.10;27.80
1135;DHT22;556;53.550;10.048;2022-08-20T15:32:40;36.00;27.90
1135;DHT22;556;53.550;10.048;2022-08-20T15:35:08;36.20;27.80
1135;DHT22;556;53.550;10.048;2022-08-20T15:37:38;36.60;27.60
1135;DHT22;556;53.550;10.048;2022-08-20T15:40:07;36.80;27.30
1135;DHT22;556;53.550;10.048;2022-08-20T15:42:36;36.50;27.20
1135;DHT22;556;53.550;10.048;2022-08-20T15:45:06;36.40;27.20
1135;DHT22;556;53.550;10.048;2022-08-20T15:47:36;36.30;27.10
1135;DHT22;556;53.550;10.048;2022-08-20T15:50:05;36.30;27.10
1135;DHT22;556;53.550;10.048;2022-08-20T15:52:37;36.30;27.10
1135;DHT22;556;53.550;10.048;2022-08-20T15:55:06;36.30;27.00
1135;DHT22;556;53.550;10.048;2022-08-20T15:57:43;36.30;27.00
1135;DHT22;556;53.550;10.048;2022-08-20T16:00:15;36.20;26.90
1135;DHT22;556;53.550;10.048;2022-08-20T16:03:17;36.20;26.90
1135;DHT22;556;53.550;10.048;2022-08-20T16:05:50;36.40;26.80
1135;DHT22;556;53.550;10.048;2022-08-20T16:08:37;36.50;26.80
1135;DHT22;556;53.550;10.048;2022-08-20T16:11:16;36.60;26.70
1135;DHT22;556;53.550;10.048;2022-08-20T16:13:48;36.80;26.60
1135;DHT22;556;53.550;10.048;2022-08-20T16:16:21;36.70;26.60